首页
METAR-TAF:

METAR-TAF

机场 :

Garden City, 堪薩斯州, 美国

纬度: 37-55-39N, 经度: 100-43-28W, 海拔: 881米

当前天气观测

该预报发布于48分钟前的18:54 UTC
风速18节,风向,有时为32节阵风
温度 32°C
湿度 38%
气压 1009 hPa
能見度: 16.1公里
天空无云

METAR: KGCK 151854Z 19018G32KT 10SM CLR 32/16 A2981 RMK AO2 PK WND 19034/1811 SLP056 T03170161

时间: 14:42 (19:42 UTC)

预报

该预报发布于2小时和22分钟前的17:20 UTC
预报有效从15日的 18点(UTC)到 16日的 18点(UTC)
风速22节,风向南转西南,有时为32节阵风
能見度: 10公里
散云层高于20000英尺
从 16日的 0000点(UTC)
风速15节,风向,有时为25节阵风
能見度: 10公里
天空无云
从 16日的 0300点(UTC)
风速14节,风向南转南东
能見度: 10公里
天空无云
从 16日的 1500点(UTC)
风速15节,风向南转西南,有时为25节阵风
能見度: 10公里
天空无云

TAF: KGCK 151720Z 1518/1618 21022G32KT P6SM SCT200 FM160000 17015G25KT P6SM SKC FM160300 16014KT P6SM SKC FM161500 20015G25KT P6SM SKC

超过4000个机场的气象观测和天气预报(METAR&TAF报告)。

可查询的气象台以黄色和红色小点在地图上表示。

将鼠标移到小点上方,可查看气象台名称。

然后点击查看天气观测和预报。

如需切换地图:点击带黑十字的绿色按钮放大地图;点击带横线的绿色按钮缩小地图;或者点击绿色箭头查看邻近地区的地图。


METAR-TAF: